Date,TemperatureHighF,TemperatureAvgF,TemperatureLowF,DewpointHighF,DewpointAvgF,DewpointLowF,HumidityHigh,HumidityAvg,HumidityLow,PressureMaxIn,PressureMinIn,WindSpeedMaxMPH,WindSpeedAvgMPH,GustSpeedMaxMPH,PrecipitationSumIn
2013-2-1,28.3,23.2,16.3,19.4,11.7,6.9,82,61,46,30.06,29.49,8,2,15,0.00
2013-2-2,24.6,19.1,11.2,15.5,9.5,4.3,81,66,49,30.19,30.03,4,1,6,0.00
2013-2-3,28.3,22.3,13.5,17.8,15.2,11.4,93,75,55,30.04,29.71,3,0,6,0.00
2013-2-4,28.1,21.6,16.6,17.4,7.7,0.9,87,56,34,29.88,29.70,8,2,21,0.00
2013-2-5,28.4,18.5,6.7,13.7,5.6,0.3,77,58,37,30.02,29.88,3,0,10,0.00
2013-2-6,36.0,25.0,16.3,23.2,14.6,-2.7,89,66,41,30.30,29.92,6,2,13,0.00
2013-2-7,23.4,17.1,8.9,2.0,-1.4,-3.7,62,44,32,30.54,30.29,6,1,10,0.00
2013-2-8,20.1,17.0,14.3,15.7,10.7,0.6,91,78,42,30.50,29.84,7,3,14,0.00
2013-2-9,19.7,16.5,13.1,18.0,11.5,2.8,93,81,58,30.22,29.77,14,6,22,0.00
2013-2-10,31.7,17.2,4.7,7.7,3.4,-1.9,88,57,32,30.43,30.23,6,1,10,0.18
2013-2-11,29.8,19.5,4.4,29.1,17.0,1.2,98,90,76,30.35,29.63,1,0,2,0.00
2013-2-12,42.5,35.9,28.0,33.1,28.9,26.5,97,77,59,29.82,29.60,8,2,14,0.32
2013-2-13,38.9,30.6,21.3,26.4,22.0,17.2,89,71,53,29.84,29.73,3,0,9,0.01
2013-2-14,40.3,28.5,22.0,25.1,21.3,19.0,91,76,47,29.97,29.70,5,1,11,0.00
2013-2-15,49.0,32.9,17.7,29.8,23.6,15.7,94,71,45,29.97,29.88,6,0,6,0.00
2013-2-16,37.6,31.9,24.9,27.6,20.8,6.0,88,65,44,29.96,29.75,8,2,13,0.00
2013-2-17,24.8,18.3,12.9,10.5,5.4,2.3,73,57,43,29.75,29.42,13,7,22,0.01
2013-2-18,27.4,18.9,10.8,3.7,0.3,-3.3,67,46,27,30.11,29.66,14,6,23,0.00
2013-2-19,39.8,28.5,13.7,32.7,15.6,-3.5,96,61,32,30.16,29.56,3,0,6,0.14
2013-2-20,34.8,30.1,24.0,33.9,23.5,15.4,97,77,61,29.69,29.51,6,2,18,0.03
2013-2-21,25.6,21.1,17.0,17.6,12.6,9.1,83,70,59,30.23,29.71,12,4,17,0.00
2013-2-22,39.1,29.7,15.7,25.3,20.5,13.1,93,70,47,30.41,30.23,8,1,14,0.00
2013-2-23,34.0,31.1,25.7,31.7,28.2,21.6,96,89,74,30.32,29.95,3,0,5,0.04
2013-2-24,35.0,32.5,30.4,33.2,31.2,29.3,96,95,92,29.96,29.75,1,0,3,0.18
2013-2-25,37.9,33.5,26.3,33.3,30.7,24.8,96,90,81,30.22,29.89,2,0,8,0.48
2013-2-26,39.2,34.7,31.0,33.9,31.5,29.5,97,88,78,30.33,30.17,2,0,3,0.11
2013-2-27,34.7,33.0,31.5,33.7,31.4,29.2,96,94,86,30.19,29.64,5,2,12,0.19
2013-2-28,43.4,35.6,29.5,37.5,33.3,28.3,97,91,78,29.64,29.53,3,0,5,0.54